Virgil, Illinois
Current Conditions -  °F | °C
As of 9:55 AM on Thursday 27 Nov 2014 (Local Time) from KDKB Reporting Station
Overcast Overcast  
Wind Chill: 11°   Ceiling: 2200
Heat Index: 23°   Visibility: 10mi
Dew Point: 16°   Wind: 14mph
Humidity: 74%   Direction: 330°NNW
Pressure: 30.34"   Gusts: 20mph
Location:  41.96°N, 88.54°W
Report Text: KDKB 271555Z AUTO 33012G17KT 10SM OVC022 M05/M09 A3034 RMK AO2 T10501090
Loading
Personal Weather Stations






























Interactive Weather Map New forecast layout! Learn more

10-Day Weather Forecast

Advertisements
Track Severe Weather on mobile